createdAt,value
2023-04-03T00:01:24.432Z,20.80
2023-04-03T00:03:53.294Z,21.07
2023-04-03T00:06:22.628Z,21.00
2023-04-03T00:08:51.072Z,21.23
2023-04-03T00:11:21.796Z,21.33
2023-04-03T00:13:50.239Z,21.50
2023-04-03T00:16:18.944Z,21.40
2023-04-03T00:18:47.237Z,22.83
2023-04-03T00:21:16.758Z,21.93
2023-04-03T00:23:45.448Z,21.70
2023-04-03T00:26:13.899Z,22.03
2023-04-03T00:28:44.354Z,22.17
2023-04-03T00:31:12.969Z,21.87
2023-04-03T00:33:41.600Z,21.57
2023-04-03T00:36:11.697Z,21.80
2023-04-03T00:38:40.778Z,21.70
2023-04-03T00:41:09.589Z,22.90
2023-04-03T00:43:38.606Z,22.90
2023-04-03T00:46:08.512Z,22.53
2023-04-03T00:48:40.878Z,22.50
2023-04-03T00:51:13.641Z,22.60
2023-04-03T00:53:47.125Z,22.90
2023-04-03T00:56:18.695Z,22.00
2023-04-03T00:58:50.846Z,21.93
2023-04-03T01:01:25.074Z,22.27
2023-04-03T01:03:53.752Z,22.87
2023-04-03T01:06:27.207Z,22.87
2023-04-03T01:08:56.729Z,22.70
2023-04-03T01:11:25.935Z,22.67
2023-04-03T01:13:54.456Z,22.27
2023-04-03T01:16:24.474Z,22.77
2023-04-03T01:18:53.144Z,24.00
2023-04-03T01:22:04.067Z,23.03
2023-04-03T01:24:37.309Z,23.20
2023-04-03T01:27:08.020Z,24.10
2023-04-03T01:29:36.717Z,23.93
2023-04-03T01:32:07.188Z,23.90
2023-04-03T01:34:35.991Z,23.83
2023-04-03T01:37:04.461Z,23.73
2023-04-03T01:39:32.979Z,24.30
2023-04-03T01:42:01.538Z,24.47
2023-04-03T01:44:30.466Z,24.37
2023-04-03T01:46:58.915Z,24.27
2023-04-03T01:49:28.914Z,24.70
2023-04-03T01:51:57.466Z,26.93
2023-04-03T01:54:25.920Z,25.80
2023-04-03T01:56:54.596Z,25.27
2023-04-03T01:59:23.404Z,25.27
2023-04-03T02:01:51.957Z,25.67
2023-04-03T02:04:20.580Z,26.27
2023-04-03T02:06:51.110Z,26.37
2023-04-03T02:09:19.560Z,26.93
2023-04-03T02:11:48.117Z,26.87
2023-04-03T02:14:16.562Z,27.97
2023-04-03T02:16:45.021Z,28.27
2023-04-03T02:19:13.437Z,28.37
2023-04-03T02:21:41.781Z,29.03
2023-04-03T02:24:11.637Z,29.27
2023-04-03T02:26:40.073Z,29.90
2023-04-03T02:29:08.526Z,29.50
2023-04-03T02:31:37.084Z,30.87
2023-04-03T02:34:05.635Z,30.37
2023-04-03T02:36:33.959Z,31.20
2023-04-03T02:39:03.740Z,31.17
2023-04-03T02:41:36.150Z,32.23
2023-04-03T02:44:05.880Z,33.37
2023-04-03T02:46:34.625Z,33.67
2023-04-03T02:49:03.137Z,35.20
2023-04-03T02:51:31.931Z,35.53
2023-04-03T02:54:00.731Z,36.67
2023-04-03T02:56:29.407Z,37.27
2023-04-03T02:58:59.458Z,38.10
2023-04-03T03:01:29.609Z,37.97
2023-04-03T03:03:58.092Z,38.67
2023-04-03T03:06:26.786Z,39.97
2023-04-03T03:08:55.097Z,39.10
2023-04-03T03:11:23.537Z,41.60
2023-04-03T03:13:51.972Z,40.73
2023-04-03T03:16:21.751Z,41.07
2023-04-03T03:18:50.174Z,40.63
2023-04-03T03:21:18.736Z,41.60
2023-04-03T03:23:47.296Z,42.50
2023-04-03T03:26:16.007Z,43.80
2023-04-03T03:28:44.534Z,44.43
2023-04-03T03:31:13.421Z,45.40
2023-04-03T03:33:43.611Z,46.20
2023-04-03T03:36:13.045Z,46.10
2023-04-03T03:38:41.658Z,46.80
2023-04-03T03:41:10.347Z,47.23
2023-04-03T03:43:39.038Z,48.73
2023-04-03T03:46:07.472Z,49.13
2023-04-03T03:48:36.407Z,50.90
2023-04-03T03:51:06.509Z,52.53
2023-04-03T03:53:35.066Z,53.10
2023-04-03T03:56:03.871Z,53.07
2023-04-03T03:58:32.305Z,53.97
2023-04-03T04:01:03.512Z,53.27
2023-04-03T04:03:31.942Z,55.10
2023-04-03T04:06:00.638Z,55.47
2023-04-03T04:08:30.393Z,55.27
2023-04-03T04:10:58.951Z,56.80
2023-04-03T04:13:27.517Z,59.30
2023-04-03T04:15:55.966Z,59.60
2023-04-03T04:18:25.038Z,60.30
2023-04-03T04:20:53.556Z,61.40
2023-04-03T04:23:21.996Z,61.80
2023-04-03T04:25:52.120Z,61.27
2023-04-03T04:28:20.565Z,63.37
2023-04-03T04:30:49.180Z,64.03
2023-04-03T04:33:17.808Z,61.90
2023-04-03T04:35:46.441Z,64.33
2023-04-03T04:38:15.170Z,62.90
2023-04-03T04:40:43.746Z,64.53
2023-04-03T04:43:15.572Z,64.20
2023-04-03T04:45:44.446Z,65.33
2023-04-03T04:48:13.014Z,69.70
2023-04-03T04:50:41.325Z,66.13
2023-04-03T04:53:09.775Z,71.67
2023-04-03T04:55:38.600Z,71.50
2023-04-03T04:58:07.021Z,74.20
2023-04-03T05:00:37.019Z,75.60
2023-04-03T05:03:05.631Z,73.60
2023-04-03T05:05:34.067Z,72.47
2023-04-03T05:08:02.494Z,69.00
2023-04-03T05:10:31.258Z,66.60
2023-04-03T05:13:00.052Z,64.83
2023-04-03T05:15:28.736Z,61.90
2023-04-03T05:17:58.984Z,63.70
2023-04-03T05:20:27.819Z,64.83
2023-04-03T05:22:56.224Z,65.40
2023-04-03T05:25:24.777Z,69.30
2023-04-03T05:27:55.871Z,70.27
2023-04-03T05:30:24.904Z,71.17
2023-04-03T05:32:53.284Z,74.03
2023-04-03T05:35:23.347Z,74.33
2023-04-03T05:37:52.169Z,76.43
2023-04-03T05:40:21.788Z,76.33
2023-04-03T05:42:50.370Z,79.70
2023-04-03T05:45:19.149Z,81.93
2023-04-03T05:47:48.531Z,80.00
2023-04-03T05:50:17.232Z,77.27
2023-04-03T05:52:49.281Z,75.43
2023-04-03T05:55:17.958Z,73.27
2023-04-03T05:57:46.388Z,71.90
2023-04-03T06:00:16.822Z,70.97
2023-04-03T06:02:45.651Z,70.77
2023-04-03T06:05:14.255Z,72.73
2023-04-03T06:07:42.808Z,70.70
2023-04-03T06:10:14.661Z,64.80
2023-04-03T06:12:43.182Z,61.13
2023-04-03T06:15:12.811Z,57.40
2023-04-03T06:17:42.730Z,56.07
2023-04-03T06:20:12.566Z,51.47
2023-04-03T06:22:41.485Z,45.10
2023-04-03T06:25:13.276Z,44.17
2023-04-03T06:27:42.237Z,39.30
2023-04-03T06:30:12.079Z,38.33
2023-04-03T06:32:40.444Z,34.87
2023-04-03T06:35:09.680Z,33.10
2023-04-03T06:37:38.249Z,30.80
2023-04-03T06:40:08.404Z,31.57
2023-04-03T06:42:38.243Z,32.60
2023-04-03T06:45:08.873Z,28.77
2023-04-03T06:47:37.175Z,25.90
2023-04-03T06:50:07.530Z,24.70
2023-04-03T06:52:38.487Z,25.20
2023-04-03T06:55:07.535Z,24.60
2023-04-03T06:57:37.885Z,22.60
2023-04-03T07:00:08.143Z,20.90
2023-04-03T07:02:36.532Z,20.53
2023-04-03T07:05:05.678Z,19.90
2023-04-03T07:07:35.132Z,19.10
2023-04-03T07:10:03.865Z,20.10
2023-04-03T07:12:32.163Z,19.67
2023-04-03T07:15:02.252Z,19.23
2023-04-03T07:17:30.594Z,19.10
2023-04-03T07:19:58.896Z,19.30
2023-04-03T07:22:27.453Z,19.33
2023-04-03T07:24:55.792Z,19.27
2023-04-03T07:27:24.337Z,19.97
2023-04-03T07:29:53.921Z,19.10
2023-04-03T07:32:24.953Z,18.83
2023-04-03T07:34:53.499Z,18.83
2023-04-03T07:37:22.076Z,18.77
2023-04-03T07:39:50.863Z,18.67
2023-04-03T07:42:19.316Z,18.40
2023-04-03T07:44:48.517Z,18.90
2023-04-03T07:47:19.186Z,19.10
2023-04-03T07:49:49.364Z,19.17
2023-04-03T07:52:17.991Z,18.60
2023-04-03T07:54:46.667Z,19.47
2023-04-03T07:57:16.397Z,18.67
2023-04-03T07:59:44.748Z,18.67
2023-04-03T08:02:13.555Z,18.50
2023-04-03T08:04:42.045Z,18.23
2023-04-03T08:07:11.748Z,19.20
2023-04-03T08:09:40.095Z,18.33
2023-04-03T08:12:08.631Z,18.60
2023-04-03T08:14:37.099Z,18.40
2023-04-03T08:17:06.164Z,18.60
2023-04-03T08:19:34.551Z,18.77
2023-04-03T08:22:04.138Z,18.50
2023-04-03T08:24:34.084Z,18.70
2023-04-03T08:27:02.912Z,18.70
2023-04-03T08:29:32.431Z,18.83
2023-04-03T08:32:02.168Z,18.67
2023-04-03T08:34:30.729Z,18.83
2023-04-03T08:36:59.294Z,18.20
2023-04-03T08:39:27.845Z,18.43
2023-04-03T08:42:00.126Z,18.37
2023-04-03T08:44:40.444Z,18.50
2023-04-03T08:47:20.447Z,18.87
2023-04-03T08:49:54.261Z,18.53
2023-04-03T08:52:31.004Z,18.50
2023-04-03T08:55:04.275Z,18.20
2023-04-03T08:57:38.470Z,18.33
2023-04-03T09:00:12.849Z,18.60
2023-04-03T09:02:47.264Z,17.87
2023-04-03T09:05:18.854Z,17.87
2023-04-03T09:07:50.197Z,17.97
2023-04-03T09:10:25.463Z,17.73
2023-04-03T09:13:01.941Z,17.60
2023-04-03T09:15:38.412Z,18.00
2023-04-03T09:18:14.536Z,17.47
2023-04-03T09:20:48.632Z,17.67
2023-04-03T09:23:27.020Z,17.40
2023-04-03T09:26:00.262Z,17.60
2023-04-03T09:28:38.795Z,17.10
2023-04-03T09:31:22.162Z,17.40
2023-04-03T09:33:52.461Z,17.40
2023-04-03T09:36:40.107Z,17.37
2023-04-03T09:39:13.823Z,17.23
2023-04-03T09:41:42.384Z,17.27
2023-04-03T09:44:29.189Z,17.30
2023-04-03T09:46:57.646Z,18.77
2023-04-03T09:49:26.665Z,17.40
2023-04-03T09:51:55.109Z,17.33
2023-04-03T09:54:44.067Z,17.40
2023-04-03T09:57:15.319Z,17.13
2023-04-03T09:59:49.229Z,17.20
2023-04-03T10:02:33.233Z,17.43
2023-04-03T10:07:36.392Z,17.80
2023-04-03T10:10:21.276Z,17.80
2023-04-03T10:12:50.434Z,17.70
2023-04-03T10:15:21.117Z,17.60
2023-04-03T10:18:01.504Z,17.60
2023-04-03T10:20:39.617Z,17.60
2023-04-03T10:23:21.152Z,17.70
2023-04-03T10:26:05.453Z,17.53
2023-04-03T10:28:42.157Z,17.50
2023-04-03T10:31:18.353Z,17.37
2023-04-03T10:33:58.130Z,17.27
2023-04-03T10:36:36.911Z,17.27
2023-04-03T10:39:18.418Z,17.07
2023-04-03T10:42:13.350Z,17.23
2023-04-03T10:44:58.629Z,17.50
2023-04-03T10:47:39.375Z,17.20
2023-04-03T10:50:25.014Z,17.50
2023-04-03T10:52:59.703Z,17.23
2023-04-03T10:55:36.652Z,17.30
2023-04-03T10:58:08.690Z,17.03
2023-04-03T11:00:43.728Z,17.30
2023-04-03T11:03:19.052Z,17.37
2023-04-03T11:05:50.694Z,17.03
2023-04-03T11:08:28.905Z,17.37
2023-04-03T11:11:00.306Z,17.20
2023-04-03T11:13:36.553Z,16.97
2023-04-03T11:16:07.658Z,17.13
2023-04-03T11:18:46.061Z,17.13
2023-04-03T11:21:22.768Z,17.20
2023-04-03T11:23:53.339Z,17.13
2023-04-03T11:26:24.900Z,16.93
2023-04-03T11:29:00.552Z,17.13
2023-04-03T11:31:58.901Z,17.10
2023-04-03T11:34:39.301Z,17.27
2023-04-03T11:37:14.715Z,17.00
2023-04-03T11:39:52.746Z,17.20
2023-04-03T11:42:36.079Z,17.23
2023-04-03T11:45:38.284Z,17.37
2023-04-03T11:48:21.261Z,17.30
2023-04-03T11:50:55.640Z,17.30
2023-04-03T11:53:36.669Z,17.17
2023-04-03T11:56:33.567Z,17.80
2023-04-03T11:59:28.670Z,17.23
2023-04-03T12:01:59.640Z,17.30
2023-04-03T12:04:30.293Z,17.27
2023-04-03T12:07:16.666Z,17.40
2023-04-03T12:10:31.521Z,17.23
2023-04-03T12:13:05.842Z,17.40
2023-04-03T12:15:56.032Z,17.50
2023-04-03T12:18:59.804Z,17.30
2023-04-03T12:22:01.762Z,17.80
2023-04-03T12:24:32.595Z,17.57
2023-04-03T12:27:08.140Z,17.43
2023-04-03T12:29:45.276Z,17.40
2023-04-03T12:32:27.013Z,17.53
2023-04-03T12:35:13.358Z,17.60
2023-04-03T12:37:52.905Z,17.67
2023-04-03T12:40:32.960Z,17.53
2023-04-03T12:43:16.532Z,17.30
2023-04-03T12:45:49.571Z,17.13
2023-04-03T12:48:20.619Z,17.37
2023-04-03T12:50:51.775Z,17.27
2023-04-03T12:53:23.774Z,17.67
2023-04-03T12:55:58.061Z,17.70
2023-04-03T12:58:29.033Z,17.57
2023-04-03T13:01:06.009Z,17.73
2023-04-03T13:03:35.186Z,18.23
2023-04-03T13:06:05.421Z,18.00
2023-04-03T13:08:35.368Z,18.00
2023-04-03T13:11:10.074Z,17.93
2023-04-03T13:13:40.179Z,17.87
2023-04-03T13:16:12.524Z,18.00
2023-04-03T13:18:42.220Z,18.07
2023-04-03T13:21:18.021Z,18.60
2023-04-03T13:23:53.063Z,17.80
2023-04-03T13:26:29.154Z,17.50
2023-04-03T13:29:02.170Z,17.57
2023-04-03T13:31:34.242Z,17.57
2023-04-03T13:34:09.989Z,17.77
2023-04-03T13:36:42.121Z,17.60
2023-04-03T13:39:26.803Z,17.47
2023-04-03T13:41:58.936Z,17.23
2023-04-03T13:44:34.214Z,17.17
2023-04-03T13:47:19.210Z,17.90
2023-04-03T13:50:01.453Z,18.13
2023-04-03T13:52:33.764Z,18.40
2023-04-03T13:55:10.083Z,17.93
2023-04-03T13:57:54.624Z,17.70
2023-04-03T14:00:35.563Z,17.70
2023-04-03T14:03:05.244Z,17.80
2023-04-03T14:05:34.799Z,17.50
2023-04-03T14:08:04.206Z,17.50
2023-04-03T14:10:33.837Z,17.20
2023-04-03T14:13:04.321Z,17.73
2023-04-03T14:15:34.552Z,18.03
2023-04-03T14:18:05.002Z,17.80
2023-04-03T14:20:35.157Z,17.70
2023-04-03T14:23:03.718Z,17.70
2023-04-03T14:25:33.363Z,17.30
2023-04-03T14:28:05.273Z,17.77
2023-04-03T14:30:35.210Z,17.60
2023-04-03T14:33:04.006Z,17.60
2023-04-03T14:35:32.581Z,17.40
2023-04-03T14:38:01.220Z,17.60
2023-04-03T14:40:29.773Z,17.70
2023-04-03T14:42:59.433Z,17.57
2023-04-03T14:45:29.278Z,17.80
2023-04-03T14:47:58.953Z,17.50
2023-04-03T14:50:29.765Z,17.20
2023-04-03T14:53:00.245Z,17.57
2023-04-03T14:55:29.885Z,17.40
2023-04-03T14:57:58.447Z,18.60
2023-04-03T15:00:28.692Z,17.53
2023-04-03T15:02:57.407Z,18.20
2023-04-03T15:05:26.408Z,18.37
2023-04-03T15:07:57.488Z,18.37
2023-04-03T15:10:28.338Z,18.20
2023-04-03T15:12:57.988Z,17.80
2023-04-03T15:15:31.378Z,17.70
2023-04-03T15:18:00.783Z,18.03
2023-04-03T15:20:32.157Z,17.83
2023-04-03T15:23:02.213Z,18.50
2023-04-03T15:25:30.852Z,17.83
2023-04-03T15:28:00.145Z,17.90
2023-04-03T15:30:30.139Z,17.27
2023-04-03T15:32:58.612Z,17.70
2023-04-03T15:35:27.320Z,17.60
2023-04-03T15:37:55.835Z,17.17
2023-04-03T15:40:24.138Z,17.10
2023-04-03T15:42:54.386Z,17.23
2023-04-03T15:45:23.304Z,17.17
2023-04-03T15:47:53.353Z,17.27
2023-04-03T15:50:23.318Z,17.80
2023-04-03T15:52:55.372Z,16.93
2023-04-03T15:55:24.284Z,17.33
2023-04-03T15:57:53.042Z,17.00
2023-04-03T16:00:22.589Z,17.77
2023-04-03T16:02:55.728Z,17.13
2023-04-03T16:05:24.391Z,17.23
2023-04-03T16:07:53.308Z,17.03
2023-04-03T16:10:22.350Z,16.37
2023-04-03T16:12:50.791Z,16.70
2023-04-03T16:15:19.361Z,16.87
2023-04-03T16:17:49.178Z,16.57
2023-04-03T16:20:19.855Z,16.63
2023-04-03T16:22:48.272Z,17.00
2023-04-03T16:25:16.963Z,16.80
2023-04-03T16:27:45.399Z,16.97
2023-04-03T16:30:14.191Z,17.00
2023-04-03T16:32:43.198Z,17.43
2023-04-03T16:35:12.648Z,16.70
2023-04-03T16:37:43.125Z,17.30
2023-04-03T16:40:13.122Z,17.10
2023-04-03T16:42:41.686Z,17.07
2023-04-03T16:45:11.114Z,17.90
2023-04-03T16:47:40.044Z,17.90
2023-04-03T16:50:09.900Z,17.27
2023-04-03T16:52:38.444Z,17.47
2023-04-03T16:55:09.166Z,16.60
2023-04-03T16:57:37.514Z,17.20
2023-04-03T17:00:07.497Z,17.10
2023-04-03T17:02:36.191Z,17.40
2023-04-03T17:05:05.344Z,17.37
2023-04-03T17:07:33.892Z,17.23
2023-04-03T17:10:02.582Z,17.00
2023-04-03T17:12:32.459Z,16.83
2023-04-03T17:15:01.015Z,17.03
2023-04-03T17:17:29.499Z,16.40
2023-04-03T17:19:58.260Z,16.50
2023-04-03T17:22:27.057Z,16.00
2023-04-03T17:24:55.733Z,15.97
2023-04-03T17:27:24.054Z,15.63
2023-04-03T17:29:53.701Z,16.40
2023-04-03T17:32:22.391Z,16.30
2023-04-03T17:34:50.821Z,16.17
2023-04-03T17:37:19.512Z,16.33
2023-04-03T17:39:48.302Z,16.00
2023-04-03T17:42:17.362Z,16.00
2023-04-03T17:44:46.402Z,16.30
2023-04-03T17:47:16.899Z,15.87
2023-04-03T17:49:45.446Z,16.50
2023-04-03T17:52:14.339Z,16.60
2023-04-03T17:54:43.085Z,15.70
2023-04-03T17:57:11.849Z,15.60
2023-04-03T17:59:40.779Z,15.53
2023-04-03T18:02:09.709Z,16.40
2023-04-03T18:04:40.152Z,16.30
2023-04-03T18:07:10.212Z,15.80
2023-04-03T18:09:41.026Z,15.60
2023-04-03T18:12:11.506Z,16.20
2023-04-03T18:14:41.988Z,15.73
2023-04-03T18:17:11.639Z,15.43
2023-04-03T18:19:42.454Z,15.47
2023-04-03T18:22:15.933Z,15.80
2023-04-03T18:24:45.967Z,15.90
2023-04-03T18:27:16.406Z,16.73
2023-04-03T18:29:50.367Z,16.47
2023-04-03T18:32:21.957Z,16.40
2023-04-03T18:34:52.560Z,16.30
2023-04-03T18:37:24.242Z,16.50
2023-04-03T18:39:53.342Z,16.77
2023-04-03T18:42:25.049Z,16.90
2023-04-03T18:44:57.831Z,17.70
2023-04-03T18:47:28.911Z,16.53
2023-04-03T18:50:00.244Z,17.00
2023-04-03T18:52:29.053Z,16.97
2023-04-03T18:54:58.091Z,16.43
2023-04-03T18:57:27.235Z,16.40
2023-04-03T18:59:56.036Z,17.10
2023-04-03T19:02:26.238Z,17.03
2023-04-03T19:04:56.144Z,15.73
2023-04-03T19:07:26.754Z,16.20
2023-04-03T19:09:56.274Z,15.77
2023-04-03T19:12:26.521Z,15.80
2023-04-03T19:14:55.095Z,16.13
2023-04-03T19:17:23.764Z,15.93
2023-04-03T19:19:52.414Z,15.90
2023-04-03T19:22:21.347Z,16.00
2023-04-03T19:24:51.371Z,16.10
2023-04-03T19:27:20.432Z,16.47
2023-04-03T19:29:51.310Z,16.50
2023-04-03T19:32:20.175Z,16.30
2023-04-03T19:34:48.596Z,16.60
2023-04-03T19:37:17.618Z,16.47
2023-04-03T19:39:46.081Z,16.57
2023-04-03T19:42:15.697Z,16.87
2023-04-03T19:44:45.101Z,16.27
2023-04-03T19:47:16.306Z,16.10
2023-04-03T19:49:44.859Z,17.03
2023-04-03T19:52:13.186Z,16.07
2023-04-03T19:54:41.631Z,16.30
2023-04-03T19:57:10.062Z,16.50
2023-04-03T19:59:39.704Z,17.73
2023-04-03T20:02:08.334Z,16.57
2023-04-03T20:04:36.768Z,17.10
2023-04-03T20:07:05.264Z,17.40
2023-04-03T20:09:34.665Z,16.77
2023-04-03T20:12:03.475Z,18.57
2023-04-03T20:14:32.391Z,16.40
2023-04-03T20:17:02.273Z,16.33
2023-04-03T20:19:31.680Z,16.47
2023-04-03T20:22:01.694Z,16.43
2023-04-03T20:24:29.877Z,17.00
2023-04-03T20:26:58.799Z,16.80
2023-04-03T20:29:27.506Z,17.17
2023-04-03T20:31:56.160Z,17.03
2023-04-03T20:34:25.796Z,17.70
2023-04-03T20:36:54.181Z,17.33
2023-04-03T20:39:24.660Z,17.00
2023-04-03T20:41:52.965Z,16.97
2023-04-03T20:44:21.860Z,17.20
2023-04-03T20:46:53.467Z,17.33
2023-04-03T20:49:23.018Z,17.33
2023-04-03T20:51:53.044Z,18.33
2023-04-03T20:54:21.874Z,17.40
2023-04-03T20:56:50.571Z,17.63
2023-04-03T20:59:19.126Z,17.33
2023-04-03T21:01:49.025Z,17.57
2023-04-03T21:04:22.446Z,17.17
2023-04-03T21:07:28.683Z,20.00
2023-04-03T21:10:33.851Z,18.00
2023-04-03T21:13:41.298Z,18.10
2023-04-03T21:16:09.198Z,19.10
2023-04-03T21:19:00.908Z,17.77
2023-04-03T21:21:29.542Z,19.00
2023-04-03T21:23:57.982Z,18.13
2023-04-03T21:26:28.572Z,18.23
2023-04-03T21:28:57.147Z,19.60
2023-04-03T21:31:26.139Z,19.33
2023-04-03T21:33:55.820Z,19.27
2023-04-03T21:36:24.153Z,18.83
2023-04-03T21:38:53.059Z,18.60
2023-04-03T21:41:21.635Z,18.93
2023-04-03T21:43:49.943Z,19.33
2023-04-03T21:46:20.344Z,19.50
2023-04-03T21:48:48.510Z,19.67
2023-04-03T21:51:18.509Z,19.00
2023-04-03T21:53:46.944Z,19.40
2023-04-03T21:56:15.280Z,19.43
2023-04-03T21:58:43.679Z,19.50
2023-04-03T22:01:13.392Z,19.40
2023-04-03T22:03:43.003Z,19.23
2023-04-03T22:06:11.666Z,19.10
2023-04-03T22:08:42.027Z,19.20
2023-04-03T22:11:12.888Z,19.27
2023-04-03T22:13:41.672Z,19.50
2023-04-03T22:18:39.904Z,19.70
2023-04-03T22:21:08.685Z,19.63
2023-04-03T22:23:37.739Z,19.67
2023-04-03T22:26:08.938Z,19.23
2023-04-03T22:28:40.269Z,19.20
2023-04-03T22:31:09.616Z,19.50
2023-04-03T22:33:38.454Z,19.60
2023-04-03T22:36:08.526Z,19.30
2023-04-03T22:38:37.500Z,19.47
2023-04-03T22:41:08.562Z,19.40
2023-04-03T22:43:38.038Z,19.97
2023-04-03T22:46:08.714Z,20.00
2023-04-03T22:48:37.498Z,19.83
2023-04-03T22:51:08.243Z,19.80
2023-04-03T22:53:36.873Z,19.60
2023-04-03T22:56:10.881Z,19.87
2023-04-03T22:58:39.429Z,19.90
2023-04-03T23:01:09.392Z,19.77
2023-04-03T23:03:38.821Z,20.20
2023-04-03T23:06:08.441Z,20.03
2023-04-03T23:08:38.847Z,20.20
2023-04-03T23:11:09.512Z,20.30
2023-04-03T23:13:38.579Z,20.00
2023-04-03T23:16:07.207Z,20.30
2023-04-03T23:18:39.889Z,20.13
2023-04-03T23:21:09.396Z,20.60
2023-04-03T23:23:38.002Z,20.30
2023-04-03T23:26:06.539Z,19.90
2023-04-03T23:28:36.888Z,20.10
2023-04-03T23:31:07.272Z,20.60
2023-04-03T23:33:35.585Z,20.23
2023-04-03T23:36:08.828Z,20.07
2023-04-03T23:38:38.233Z,20.07
2023-04-03T23:41:06.663Z,20.33
2023-04-03T23:43:36.785Z,20.47
2023-04-03T23:46:05.119Z,20.70
2023-04-03T23:48:33.314Z,20.23
2023-04-03T23:51:01.625Z,20.70
2023-04-03T23:53:30.069Z,20.97
2023-04-03T23:55:58.382Z,21.40
2023-04-03T23:58:26.589Z,20.97
